Hattiesburg Laurel Regional Airport
KPIB : now visible

Airfield :











YOU CAN JOIN US ON...

 
LOGIN :

Register | Disclaimer

   EN    FR    IT 

 









Legend :    VFR   Marginal VFR   IFR   Intensive IFR   Very Intensive IFR
Visi :
Ceiling :
>= 8 km
>= 3000ft
5 to 8 km
1000 to 3000 ft
1500m to 5 km
500 to 1000 ft
800 to 1500m
200 to 500 ft
< 800m
< 200 ft
Symbols :   Thunderstorms  Fog  Heavy snow  Heavy precipitations  Wind > 20 kt






- Airport Elevation : 298 ft
- IATA code : PIB


KPIB - Hattiesburg Laurel Regional

CURRENT METAR :
  • 021326Z AUTO 03006KT 1 3/4SM BR OVC003 06/06 A3019 RMK AO2

EXPIRED METARs :
  • 021308Z AUTO 02007KT 2SM BR OVC003 06/06 A3019 RMK AO2
  • 021256Z AUTO 04008KT 5SM BR OVC003 06/06 A3018 RMK AO2 SLP220 T00610061
  • 021156Z AUTO 04006KT 10SM OVC003 06/06 A3018 RMK AO2 SLP220 6//// 7//// T00610061 10067 20061 58006

TAF KPIB
Valid from the 02 at 12:00 until the 03 at 12:00 UTC


021137Z 0212/0312 01006KT P6SM OVC003
FM021900 04005KT 3SM RA BR OVC005
FM030000 VRB03KT 4SM SHRA BR OVC004
FM030100 VRB04KT 4SM BR VCSH OVC004
KZHU FIR / North America



MET'MAP, your aeronautical weather chart ! - Copyright ORBIFLY December 2007 - Disclaimer

ORBIFLY MET'MAP TEAM :

Programming & Development : Alexandra Zaïnal
Original concept : Baudouin d'Aumeries
Technical & hardware support : Manuel Goepfert
Assistance : Marc-Olivier Méhu




SOURCES & CREDITS :

   NOAA       Earth
Advisory